^^
Datos históricos de la estación: Murcia-Puente Tocinos
Diario Informe para Septiembre 24, 2020 Unidades:  Métrico    Ingés   Ambas
Diario Semanal Mensual Anual
  Máxima: Mínima: Promedio:
Temperatura: 33.7 °C 22.8 °C 27.7 °C
Punto de rocio: 15.8 °C 10 °C 13.5 °C
Humedad: 58% 25% 43%
Velocidad viento: 25.6km/h 0km/h 8km/h
Racha viento: 50.1km/h - -
Viento- - SSO
Presión: 1014.0 hPa 1010.4 hPa -
Precipitación: 0.0 mm    
 
 
Tabla de datos para Septiembre 24, 2020
Hora Temperatura Punto de rocio Presión Viento Velocidad viento Racha viento Humedad Intensidad lluvia(por hora) Nubes
00:04 25.2 °C 15.6 °C 1012.0 hPa SSO 4.7 km/h 9.5 km/h 55.4% 0.0 mm
00:09 25.3 °C 15.5 °C 1012.2 hPa SSO 5 km/h 9.7 km/h 54.7% 0.0 mm
00:14 25.4 °C 15.4 °C 1012.2 hPa Sur 5.1 km/h 9.7 km/h 54% 0.0 mm
00:19 25.5 °C 15.5 °C 1012.2 hPa SSE 5.8 km/h 9.5 km/h 54% 0.0 mm
00:24 25.4 °C 15.5 °C 1012.2 hPa SSE 5.8 km/h 9.7 km/h 54.4% 0.0 mm
00:29 25.3 °C 15.5 °C 1012.2 hPa SSE 5.8 km/h 9.7 km/h 54.6% 0.0 mm
00:34 25.3 °C 15.2 °C 1012.2 hPa SSO 5.2 km/h 7.4 km/h 53.7% 0.0 mm
00:39 25.3 °C 15.2 °C 1012.4 hPa SO 2.3 km/h 8 km/h 53.4% 0.0 mm
00:44 25.4 °C 14.9 °C 1012.4 hPa SO 2.6 km/h 8 km/h 52.2% 0.0 mm
00:49 25.5 °C 14.6 °C 1012.4 hPa SSO 4.7 km/h 8 km/h 51.1% 0.0 mm
00:54 25.6 °C 14.7 °C 1012.4 hPa SSO 4.5 km/h 8 km/h 51% 0.0 mm
00:59 25.6 °C 15.3 °C 1012.2 hPa OSO 3.2 km/h 6.9 km/h 52.8% 0.0 mm
01:04 25.5 °C 15.8 °C 1012.2 hPa NE 3.2 km/h 8 km/h 55% 0.0 mm
01:09 25 °C 15.4 °C 1012.3 hPa Este 3.2 km/h 8 km/h 55.2% 0.0 mm
01:14 24.6 °C 15.4 °C 1012.3 hPa Este 3.3 km/h 8 km/h 56.5% 0.0 mm
01:19 24.4 °C 15.3 °C 1012.3 hPa Este 3.9 km/h 5.8 km/h 57% 0.0 mm
01:24 24.3 °C 15.2 °C 1012.3 hPa Este 3.7 km/h 6.4 km/h 56.9% 0.0 mm
01:29 24.4 °C 15.2 °C 1012.2 hPa Este 2.9 km/h 5.8 km/h 56.6% 0.0 mm
01:34 24.4 °C 15.1 °C 1012.2 hPa Este 2.8 km/h 6.4 km/h 56.2% 0.0 mm
01:39 24.5 °C 15 °C 1012.5 hPa Este 2.2 km/h   55.4% 0.0 mm
01:44 24.6 °C 14.9 °C 1012.5 hPa Este 2 km/h   54.9% 0.0 mm
01:49 24.6 °C 14.6 °C 1012.5 hPa Calm   3.9 km/h 53.9% 0.0 mm
01:54 24.7 °C 14.6 °C 1012.5 hPa Calm   5.6 km/h 53.3% 0.0 mm
01:59 24.8 °C 14.6 °C 1012.3 hPa Calm   7.6 km/h 53.1% 0.0 mm
02:04 25 °C 14.2 °C 1012.3 hPa SSO 0.6 km/h 8.4 km/h 51.3% 0.0 mm
02:09 25.2 °C 14.1 °C 1012.3 hPa SSO 4.6 km/h 8 km/h 50.1% 0.0 mm
02:14 25.3 °C 14.1 °C 1012.2 hPa SSO 4.5 km/h 8 km/h 50% 0.0 mm
02:19 25.4 °C 14 °C 1012.2 hPa SSO 3.9 km/h 8 km/h 49.2% 0.0 mm
02:22 25.4 °C 14 °C 1012.2 hPa SSO 3.8 km/h 6.4 km/h 49.3% 0.0 mm
02:34 25 °C 14.7 °C 1012.2 hPa ESE 3.2 km/h 7.4 km/h 53% 0.0 mm
02:39 24.8 °C 14.6 °C 1012.4 hPa ESE 3.2 km/h 8.4 km/h 53% 0.0 mm
02:44 24.6 °C 14.4 °C 1012.4 hPa ESE 3.5 km/h 8.7 km/h 53% 0.0 mm
02:49 24.4 °C 14.4 °C 1012.4 hPa ESE 5 km/h 9.7 km/h 53.4% 0.0 mm
02:54 24.4 °C 14.4 °C 1012.4 hPa ESE 5 km/h 8 km/h 53.5% 0.0 mm
02:59 24.3 °C 14.1 °C 1012.3 hPa ESE 5 km/h 8 km/h 53% 0.0 mm
03:04 24.4 °C 14.2 °C 1012.3 hPa ESE 4.8 km/h 8 km/h 53% 0.0 mm
03:09 24.4 °C 14.2 °C 1012.4 hPa ESE 3.9 km/h 8 km/h 53% 0.0 mm
03:14 24.4 °C 14.2 °C 1012.4 hPa ESE 3.9 km/h 8 km/h 53% 0.0 mm
03:19 24.4 °C 14.2 °C 1012.4 hPa ESE 3.9 km/h 8 km/h 53% 0.0 mm
03:24 24.5 °C 14 °C 1012.5 hPa SE 3.9 km/h 8.4 km/h 52% 0.0 mm
03:29 24.6 °C 14 °C 1012.5 hPa SSE 3.9 km/h 8 km/h 51.6% 0.0 mm
03:33 24.7 °C 13.9 °C 1012.5 hPa Sur 3.9 km/h 8 km/h 51% 0.0 mm
03:49 24.8 °C 14 °C 1012.4 hPa SSO 3.9 km/h 7.4 km/h 51% 0.0 mm
03:54 24.8 °C 13.9 °C 1012.4 hPa SSO 3.8 km/h 8 km/h 50.8% 0.0 mm
03:59 24.8 °C 13.7 °C 1012.4 hPa SSO 3.2 km/h 7.4 km/h 50% 0.0 mm
04:04 24.8 °C 13.7 °C 1012.4 hPa SSO 3.4 km/h 8 km/h 50% 0.0 mm
04:09 24.9 °C 13.5 °C 1012.4 hPa SSO 4.7 km/h 8 km/h 49% 0.0 mm
04:14 25 °C 13.5 °C 1012.4 hPa Sur 4.7 km/h 8 km/h 49% 0.0 mm
04:19 25 °C 13.6 °C 1012.4 hPa Sur 5 km/h 8 km/h 49% 0.0 mm
04:24 25 °C 13.6 °C 1012.4 hPa Sur 4.8 km/h 6.4 km/h 49% 0.0 mm
04:29 24.9 °C 13.5 °C 1012.3 hPa Sur 3.9 km/h 6.4 km/h 49% 0.0 mm
04:34 24.9 °C 13.4 °C 1012.3 hPa Sur 3.7 km/h 4.8 km/h 49% 0.0 mm
04:39 24.8 °C 13.4 °C 1012.3 hPa Sur 2.9 km/h 5.8 km/h 49% 0.0 mm
04:44 24.8 °C 13.5 °C 1012.3 hPa Sur 2.8 km/h 6.4 km/h 49.4% 0.0 mm
04:49 24.8 °C 13.7 °C 1012.3 hPa Sur 2.2 km/h 3.9 km/h 50% 0.0 mm
04:54 24.8 °C 13.6 °C 1012.4 hPa Sur 2.3 km/h 5.8 km/h 50% 0.0 mm
04:59 24.7 °C 13.5 °C 1012.4 hPa SSE 2.9 km/h 7.4 km/h 50% 0.0 mm
05:04 24.6 °C 13.5 °C 1012.4 hPa SSO 3.2 km/h 8.4 km/h 50% 0.0 mm
05:09 24.5 °C 13.6 °C 1012.4 hPa Sur 5 km/h 10 km/h 50.9% 0.0 mm
05:14 24.4 °C 13.6 °C 1012.3 hPa Sur 5.1 km/h 9.7 km/h 51% 0.0 mm
05:19 24.4 °C 13.6 °C 1012.3 hPa Sur 5.8 km/h 8 km/h 51% 0.0 mm
05:24 24.4 °C 13.6 °C 1012.3 hPa Sur 5.5 km/h 8 km/h 51% 0.0 mm
05:29 24.5 °C 13.7 °C 1012.3 hPa Sur 3.9 km/h 5.8 km/h 51% 0.0 mm
05:34 24.6 °C 13.8 °C 1012.3 hPa Sur 3.9 km/h 7.6 km/h 51% 0.0 mm
05:39 24.6 °C 13.8 °C 1012.3 hPa Sur 3.9 km/h 8 km/h 51% 0.0 mm
05:44 24.6 °C 13.8 °C 1012.2 hPa SSE 4.1 km/h 8.4 km/h 51% 0.0 mm
05:49 24.3 °C 13.8 °C 1012.2 hPa SSE 5.8 km/h 10 km/h 52% 0.0 mm
05:54 24.2 °C 13.7 °C 1012.2 hPa Sur 5.9 km/h 10 km/h 52% 0.0 mm
05:59 24.2 °C 13.7 °C 1012.1 hPa Sur 6.4 km/h 9.7 km/h 51.8% 0.0 mm
06:04 24.2 °C 13.4 °C 1012.1 hPa SSO 6.5 km/h 10 km/h 51% 0.0 mm
06:09 24.2 °C 13.4 °C 1012.1 hPa SSO 6.5 km/h 9.7 km/h 51% 0.0 mm
06:14 24.2 °C 13.6 °C 1012.1 hPa SSO 6.5 km/h 10 km/h 51.6% 0.0 mm
06:19 24.2 °C 13.7 °C 1012.1 hPa SO 6.5 km/h 11.1 km/h 52% 0.0 mm
06:24 24.2 °C 13.7 °C 1012.3 hPa SO 6.5 km/h 13.7 km/h 52% 0.0 mm
06:29 24.1 °C 13.6 °C 1012.3 hPa SO 6.9 km/h 14.5 km/h 52% 0.0 mm
06:34 24.1 °C 13.6 °C 1012.3 hPa Sur 6.8 km/h 9.7 km/h 52% 0.0 mm
06:39 24.1 °C 13.6 °C 1012.3 hPa Sur 5.8 km/h 8 km/h 51.9% 0.0 mm
06:44 24.1 °C 13.6 °C 1012.2 hPa SSE 5.8 km/h 8 km/h 52% 0.0 mm
06:49 24 °C 13.6 °C 1012.2 hPa SSE 5.8 km/h 9.5 km/h 52% 0.0 mm
06:54 23.9 °C 13.4 °C 1012.2 hPa Sur 5.8 km/h 9.7 km/h 52% 0.0 mm
06:59 23.8 °C 13.6 °C 1012.2 hPa SSO 5.8 km/h 8 km/h 52.6% 0.0 mm
07:04 23.8 °C 13.6 °C 1012.2 hPa SSO 5.4 km/h 7.4 km/h 52.8% 0.0 mm
07:09 23.7 °C 13.6 °C 1012.4 hPa Sur 3.2 km/h 8.4 km/h 53% 0.0 mm
07:14 23.7 °C 13.5 °C 1012.4 hPa SSE 3.4 km/h 8.4 km/h 53% 0.0 mm
07:19 23.6 °C 13.4 °C 1012.4 hPa Sur 5 km/h 9.5 km/h 53% 0.0 mm
07:24 23.6 °C 13.4 °C 1012.5 hPa Sur 5.2 km/h 9.5 km/h 53% 0.0 mm
07:29 23.6 °C 13.5 °C 1012.5 hPa SSO 6.4 km/h 9.7 km/h 53.2% 0.0 mm
07:34 23.6 °C 13.7 °C 1012.5 hPa SSO 6.2 km/h 9.7 km/h 54% 0.0 mm
07:39 23.5 °C 13.7 °C 1012.8 hPa SSO 5 km/h 9.7 km/h 54% 0.0 mm
07:44 23.4 °C 13.6 °C 1012.8 hPa SSO 5 km/h 7.4 km/h 54% 0.0 mm
07:49 23.4 °C 13.6 °C 1012.8 hPa SSO 5 km/h 8 km/h 54% 0.0 mm
07:54 23.4 °C 13.6 °C 1012.9 hPa SSO 4.8 km/h 8 km/h 54% 0.0 mm
07:59 23.4 °C 13.6 °C 1012.9 hPa SSO 3.9 km/h 8.4 km/h 54% 0.0 mm
08:04 23.4 °C 13.6 °C 1012.9 hPa SO 4 km/h 8 km/h 54% 0.0 mm
08:09 23.5 °C 13.6 °C 1012.9 hPa SO 4.7 km/h 8 km/h 54% 0.0 mm
08:14 23.5 °C 13.7 °C 1012.8 hPa SO 4.7 km/h 8 km/h 54.3% 0.0 mm
08:19 23.4 °C 13.8 °C 1012.8 hPa SO 4.7 km/h 8 km/h 54.7% 0.0 mm
08:24 23.4 °C 13.8 °C 1012.9 hPa SSO 4.7 km/h 9.3 km/h 55% 0.0 mm
08:29 23.4 °C 13.9 °C 1012.9 hPa SE 4.7 km/h 9.7 km/h 55.3% 0.0 mm
08:34 23.4 °C 14.2 °C 1012.9 hPa SE 4.8 km/h 11.1 km/h 56.3% 0.0 mm
08:39 23.1 °C 14.3 °C 1012.9 hPa SSE 5.8 km/h 11.3 km/h 57.7% 0.0 mm
08:44 22.9 °C 14.2 °C 1012.9 hPa SSE 5.8 km/h 11.1 km/h 58% 0.0 mm
08:49 22.8 °C 14.1 °C 1012.9 hPa SSE 5.8 km/h 13.7 km/h 58% 0.0 mm
08:54 22.8 °C 14.1 °C 1013.1 hPa SSE 6.1 km/h 14.5 km/h 58% 0.0 mm
08:59 22.9 °C 14.1 °C 1013.1 hPa Sur 8.4 km/h 11.3 km/h 57.7% 0.0 mm
09:04 23.1 °C 14.1 °C 1013.1 hPa SO 8.1 km/h 11.3 km/h 57.1% 0.0 mm
09:09 23.2 °C 14 °C 1013.3 hPa SO 6.9 km/h 11.3 km/h 56.1% 0.0 mm
09:14 23.3 °C 14.1 °C 1013.3 hPa OSO 6.7 km/h 9.7 km/h 56% 0.0 mm
09:19 23.5 °C 14 °C 1013.3 hPa OSO 5 km/h 9.5 km/h 55.1% 0.0 mm
09:24 23.7 °C 14 °C 1013.3 hPa SSO 5 km/h 9.7 km/h 54.8% 0.0 mm
09:29 23.8 °C 13.9 °C 1013.3 hPa Sur 5 km/h 11.9 km/h 54% 0.0 mm
09:34 23.9 °C 13.9 °C 1013.3 hPa Sur 5.2 km/h 11.3 km/h 53.8% 0.0 mm
09:39 24 °C 14.1 °C 1013.3 hPa Sur 6.4 km/h 9.7 km/h 53.7% 0.0 mm
09:44 24.2 °C 14 °C 1013.3 hPa OSO 6.1 km/h 8 km/h 53% 0.0 mm
09:49 24.2 °C 13.9 °C 1013.3 hPa Oeste 3.9 km/h 6.4 km/h 52.4% 0.0 mm
09:54 24.4 °C 14.1 °C 1013.5 hPa OSO 3.7 km/h 5.8 km/h 52.6% 0.0 mm
09:59 24.6 °C 14.3 °C 1013.5 hPa SO 2.9 km/h 6.9 km/h 52.9% 0.0 mm
10:04 24.7 °C 14.2 °C 1013.5 hPa SSO 3.1 km/h 8 km/h 52% 0.0 mm
10:09 24.8 °C 14.2 °C 1013.9 hPa SO 4.7 km/h 9.3 km/h 52% 0.0 mm
10:14 24.9 °C 14.3 °C 1013.9 hPa SSO 4.8 km/h 9.7 km/h 51.9% 0.0 mm
10:19 25 °C 14.3 °C 1013.9 hPa SO 5.8 km/h 8.4 km/h 51.4% 0.0 mm
10:24 25.1 °C 14.3 °C 1013.9 hPa OSO 5.5 km/h 8 km/h 51% 0.0 mm
10:29 25.2 °C 14.3 °C 1013.7 hPa OSO 3.9 km/h 8 km/h 51% 0.0 mm
10:34 25.3 °C 14.5 °C 1013.7 hPa SSE 3.9 km/h 7.4 km/h 51% 0.0 mm
10:39 25.4 °C 14.8 °C 1013.8 hPa ESE 3.9 km/h 9.3 km/h 51.9% 0.0 mm
10:44 25.4 °C 15.4 °C 1013.8 hPa SE 4.1 km/h 9.7 km/h 54% 0.0 mm
10:49 25.4 °C 15.1 °C 1013.8 hPa SE 5.8 km/h 9.7 km/h 53% 0.0 mm
10:54 25.3 °C 14.7 °C 1013.8 hPa SE 5.6 km/h 8 km/h 51.8% 0.0 mm
10:59 25.3 °C 14.5 °C 1013.7 hPa SO 4.7 km/h 8 km/h 51.1% 0.0 mm
11:04 25.4 °C 14.6 °C 1013.7 hPa Sur 4.5 km/h 8 km/h 51.2% 0.0 mm
11:09 25.7 °C 14.6 °C 1013.9 hPa Sur 3.9 km/h 9.3 km/h 50.4% 0.0 mm
11:14 25.8 °C 14.4 °C 1013.9 hPa Sur 4.1 km/h 9.7 km/h 49.3% 0.0 mm
11:19 26.1 °C 14.2 °C 1013.9 hPa SSE 5.8 km/h 9.7 km/h 48% 0.0 mm
11:24 26.4 °C 14.5 °C 1013.9 hPa Sur 5.8 km/h 11.1 km/h 47.9% 0.0 mm
11:29 26.6 °C 14.3 °C 1013.9 hPa SSO 5.8 km/h 11.3 km/h 47% 0.0 mm
11:34 26.6 °C 14.3 °C 1013.9 hPa Oeste 5.8 km/h 10 km/h 47% 0.0 mm
11:39 26.6 °C 14.3 °C 1014.0 hPa Oeste 5.8 km/h 13 km/h 47% 0.0 mm
11:44 26.5 °C 14.2 °C 1014.0 hPa OSO 5.9 km/h 13 km/h 47% 0.0 mm
11:49 26.4 °C 14.2 °C 1014.0 hPa Oeste 6.9 km/h 11.3 km/h 47% 0.0 mm
11:54 26.3 °C 14.2 °C 1014.0 hPa OSO 6.8 km/h 9.7 km/h 47.2% 0.0 mm
11:59 26.3 °C 14.2 °C 1014.0 hPa OSO 5.8 km/h 9.7 km/h 47.1% 0.0 mm
12:04 26.5 °C 14.5 °C 1014.0 hPa SSO 5.7 km/h 10.3 km/h 47.9% 0.0 mm
12:09 26.7 °C 14.4 °C 1014.0 hPa Sur 5 km/h 11.3 km/h 47.1% 0.0 mm
12:14 26.8 °C 14.4 °C 1013.9 hPa Sur 5.1 km/h 11.9 km/h 46.3% 0.0 mm
12:19 27.1 °C 14.5 °C 1013.9 hPa SE 5.8 km/h 11.3 km/h 46% 0.0 mm
12:24 27.3 °C 14.3 °C 1013.9 hPa ONO 5.5 km/h 8 km/h 45% 0.0 mm
12:29 27.6 °C 14.4 °C 1013.6 hPa ONO 3.2 km/h 8 km/h 44.7% 0.0 mm
12:34 27.6 °C 14.3 °C 1013.6 hPa ONO 3.4 km/h 9.5 km/h 44.1% 0.0 mm
12:39 27.6 °C 14.5 °C 1013.6 hPa NO 4.7 km/h 9.7 km/h 44.8% 0.0 mm
12:44 27.8 °C 14.6 °C 1013.4 hPa Oeste 4.6 km/h 9.5 km/h 44.4% 0.0 mm
12:49 28 °C 14.3 °C 1013.4 hPa Oeste 3.9 km/h 9.7 km/h 43% 0.0 mm
12:54 28.1 °C 14.1 °C 1013.4 hPa SSO 4.1 km/h 11.1 km/h 42.4% 0.0 mm
12:59 28.2 °C 14.1 °C 1013.2 hPa SO 5.8 km/h 11.3 km/h 42.2% 0.0 mm
13:04 28.3 °C 14.3 °C 1013.2 hPa OSO 5.9 km/h 14.8 km/h 42.5% 0.0 mm
13:09 28.3 °C 14.2 °C 1013.2 hPa SSO 6.4 km/h 14.5 km/h 42% 0.0 mm
13:14 28.4 °C 14.3 °C 1013.2 hPa OSO 6.5 km/h 11.3 km/h 42% 0.0 mm
13:19 28.7 °C 14.1 °C 1013.2 hPa OSO 6.5 km/h 10 km/h 41.1% 0.0 mm
13:24 28.9 °C 13.9 °C 1013.2 hPa SSO 6.4 km/h 14 km/h 40% 0.0 mm
13:29 29.3 °C 14.1 °C 1012.9 hPa Sur 5.8 km/h 16.1 km/h 39.6% 0.0 mm
13:34 29.4 °C 14.1 °C 1012.9 hPa SSO 6 km/h 16.1 km/h 39% 0.0 mm
13:39 29.6 °C 14.2 °C 1012.9 hPa SO 7.6 km/h 12.9 km/h 39% 0.0 mm
13:44 29.8 °C 14.1 °C 1012.5 hPa SSO 7.4 km/h 11.9 km/h 38.2% 0.0 mm
13:49 30.1 °C 14.2 °C 1012.5 hPa SSO 6.5 km/h 11.9 km/h 38% 0.0 mm
13:54 30.3 °C 14.1 °C 1012.5 hPa SE 6.5 km/h 12.9 km/h 37.2% 0.0 mm
13:59 30.5 °C 14.2 °C 1012.3 hPa OSO 6.5 km/h 14.8 km/h 37% 0.0 mm
14:04 30.6 °C 14.2 °C 1012.3 hPa SSO 6.5 km/h 14.5 km/h 36.8% 0.0 mm
14:09 30.6 °C 13.8 °C 1012.3 hPa OSO 6.9 km/h 14.8 km/h 36% 0.0 mm
14:14 30.7 °C 13.9 °C 1012.0 hPa OSO 6.9 km/h 14.5 km/h 36% 0.0 mm
14:19 30.8 °C 14.2 °C 1012.0 hPa ONO 6.9 km/h 9.7 km/h 36.4% 0.0 mm
14:24 31.1 °C 14.2 °C 1012.0 hPa Oeste 6.7 km/h 13 km/h 36% 0.0 mm
14:29 31.2 °C 14 °C 1011.8 hPa NO 5 km/h 12.9 km/h 35.2% 0.0 mm
14:34 31.3 °C 14 °C 1011.8 hPa Oeste 5.3 km/h 11.9 km/h 35% 0.0 mm
14:39 31.4 °C 13.9 °C 1011.8 hPa OSO 6.9 km/h 13.7 km/h 34.6% 0.0 mm
14:44 31.3 °C 13.6 °C 1011.7 hPa Oeste 6.9 km/h 14.5 km/h 34.1% 0.0 mm
14:49 31.4 °C 13.9 °C 1011.7 hPa OSO 6.9 km/h 12.9 km/h 34.7% 0.0 mm
14:54 31.7 °C 13.8 °C 1011.7 hPa OSO 6.5 km/h 8 km/h 33.8% 0.0 mm
14:59 32 °C 13.7 °C 1011.3 hPa NO 3.9 km/h 9.5 km/h 33% 0.0 mm
15:04 32.2 °C 13.8 °C 1011.3 hPa NO 3.8 km/h 9.7 km/h 33% 0.0 mm
15:09 32.3 °C 13.8 °C 1011.3 hPa NO 3.2 km/h 10 km/h 32.7% 0.0 mm
15:14 32.3 °C 13.8 °C 1011.1 hPa NNO 3.5 km/h 13 km/h 32.7% 0.0 mm
15:19 32.4 °C 13.8 °C 1011.1 hPa NNE 5 km/h 12.9 km/h 32.5% 0.0 mm
15:24 32.6 °C 13.7 °C 1010.9 hPa NE 4.4 km/h 7.6 km/h 32% 0.0 mm
15:29 32.6 °C 13.3 °C 1010.9 hPa ONO 3.2 km/h 11.1 km/h 31.1% 0.0 mm
15:34 32.5 °C 13.4 °C 1010.9 hPa ENE 3.6 km/h 11.3 km/h 31.4% 0.0 mm
15:39 32.7 °C 13.4 °C 1010.9 hPa SSO 5.8 km/h 9.5 km/h 31.1% 0.0 mm
15:44 32.9 °C 13.6 °C 1010.8 hPa ONO 5.9 km/h 20.4 km/h 31.1% 0.0 mm
15:49 32.9 °C 13.6 °C 1010.8 hPa Oeste 6.4 km/h 20.9 km/h 31% 0.0 mm
15:54 33.1 °C 13.7 °C 1010.8 hPa Oeste 6.5 km/h 14.5 km/h 31% 0.0 mm
15:59 33.2 °C 13.8 °C 1010.8 hPa SO 6.5 km/h 13.7 km/h 31% 0.0 mm
16:04 33.2 °C 13.6 °C 1010.8 hPa Oeste 6.8 km/h 16.7 km/h 30.7% 0.0 mm
16:09 33.1 °C 13.7 °C 1010.8 hPa Oeste 8.4 km/h 16.1 km/h 31% 0.0 mm
16:14 33.2 °C 13.8 °C 1010.8 hPa NO 7.9 km/h 11.3 km/h 31.1% 0.0 mm
16:19 33.3 °C 13.9 °C 1010.8 hPa ONO 5 km/h 13 km/h 31% 0.0 mm
16:24 33.3 °C 13.8 °C 1010.8 hPa SO 5.2 km/h 13 km/h 30.8% 0.0 mm
16:29 33.4 °C 13.7 °C 1010.6 hPa SO 6.4 km/h 16.7 km/h 30.5% 0.0 mm
16:34 33.7 °C 13.7 °C 1010.6 hPa SO 6.4 km/h 16.1 km/h 30% 0.0 mm
16:39 33.7 °C 13.6 °C 1010.6 hPa SO 5.8 km/h 16.7 km/h 29.9% 0.0 mm
16:44 33.6 °C 13.6 °C 1010.5 hPa SSO 6 km/h 16.1 km/h 30% 0.0 mm
16:49 33.4 °C 13.5 °C 1010.5 hPa SSO 8.6 km/h 16.1 km/h 30% 0.0 mm
16:54 33.4 °C 13.6 °C 1010.5 hPa SSO 8.4 km/h 14.5 km/h 30.3% 0.0 mm
16:59 33.3 °C 13.9 °C 1010.5 hPa Sur 6.5 km/h 12.9 km/h 30.9% 0.0 mm
17:04 33.3 °C 13.8 °C 1010.5 hPa SSO 6.5 km/h 11.3 km/h 31% 0.0 mm
17:09 33.2 °C 13.8 °C 1010.6 hPa SO 6.5 km/h 14.8 km/h 31% 0.0 mm
17:14 33.1 °C 13.6 °C 1010.6 hPa SO 6.6 km/h 14.8 km/h 30.7% 0.0 mm
17:19 33 °C 13.6 °C 1010.6 hPa Oeste 7.6 km/h 12.9 km/h 31% 0.0 mm
17:24 32.9 °C 13.6 °C 1010.6 hPa ONO 7.3 km/h 11.3 km/h 31% 0.0 mm
17:29 32.9 °C 13.6 °C 1010.6 hPa ONO 5.8 km/h 14.8 km/h 31.1% 0.0 mm
17:34 32.8 °C 13.5 °C 1010.6 hPa Oeste 6.2 km/h 16.7 km/h 31.1% 0.0 mm
17:39 32.7 °C 13.7 °C 1010.6 hPa ONO 8.7 km/h 16.1 km/h 31.7% 0.0 mm
17:44 32.6 °C 13.7 °C 1010.6 hPa ONO 8.5 km/h 13 km/h 31.8% 0.0 mm
17:49 32.5 °C 13.7 °C 1010.6 hPa Oeste 7.6 km/h 12.9 km/h 32% 0.0 mm
17:54 32.4 °C 13.6 °C 1010.6 hPa OSO 7.5 km/h 11.3 km/h 32% 0.0 mm
17:59 32.4 °C 13.1 °C 1010.6 hPa Oeste 6.9 km/h 19 km/h 31% 0.0 mm
18:04 32.4 °C 13.1 °C 1010.6 hPa OSO 7.2 km/h 19.3 km/h 31% 0.0 mm
18:09 32.4 °C 12.8 °C 1010.6 hPa SO 8.7 km/h 26.2 km/h 30.3% 0.0 mm
18:14 32.6 °C 12.2 °C 1010.4 hPa SO 9.2 km/h 30.6 km/h 28.9% 0.0 mm
18:19 32.7 °C 12 °C 1010.4 hPa SSO 13 km/h 30.6 km/h 28.4% 0.0 mm
18:24 32.6 °C 10.9 °C 1010.6 hPa SO 13.9 km/h 44.4 km/h 26.5% 0.0 mm
18:29 32.6 °C 10.6 °C 1010.6 hPa SO 20.1 km/h 50.1 km/h 26% 0.0 mm
18:34 32.6 °C 10.6 °C 1010.6 hPa SO 20.8 km/h 49.9 km/h 26% 0.0 mm
18:39 32.6 °C 10.6 °C 1010.6 hPa SO 25.1 km/h 45.1 km/h 26% 0.0 mm
18:44 32.6 °C 10 °C 1010.6 hPa SO 24.7 km/h 43.1 km/h 25.1% 0.0 mm
18:49 32.6 °C 10.3 °C 1010.6 hPa SO 22.1 km/h 45.7 km/h 25.5% 0.0 mm
18:54 32.6 °C 10.6 °C 1010.6 hPa SO 22.1 km/h 46.7 km/h 26% 0.0 mm
18:59 32.6 °C 10.6 °C 1010.6 hPa SO 22.5 km/h 46.7 km/h 26% 0.0 mm
19:04 32.6 °C 10.2 °C 1010.6 hPa SO 22.5 km/h 50.1 km/h 25.4% 0.0 mm
19:09 32.6 °C 10 °C 1010.6 hPa SO 22.5 km/h 49.9 km/h 25% 0.0 mm
19:14 32.5 °C 10.2 °C 1010.6 hPa SO 23 km/h 45.1 km/h 25.4% 0.0 mm
19:19 32.4 °C 10.5 °C 1010.6 hPa SO 25.6 km/h 45.1 km/h 26% 0.0 mm
19:24 32.3 °C 10.4 °C 1010.7 hPa SO 25.1 km/h 43.9 km/h 26% 0.0 mm
19:29 32.3 °C 10.3 °C 1010.7 hPa SO 22.1 km/h 48.1 km/h 26% 0.0 mm
19:34 32.2 °C 10.4 °C 1010.7 hPa SO 22.3 km/h 44.4 km/h 26.3% 0.0 mm
19:39 32.1 °C 10.7 °C 1010.9 hPa SO 23.6 km/h 45.1 km/h 26.9% 0.0 mm
19:44 32.1 °C 10.7 °C 1010.9 hPa OSO 23.6 km/h 45.1 km/h 27% 0.0 mm
19:49 31.9 °C 10.6 °C 1010.9 hPa SO 23.3 km/h 37.8 km/h 27% 0.0 mm
19:54 31.9 °C 10.6 °C 1011.2 hPa SO 22.9 km/h 37 km/h 27% 0.0 mm
19:59 31.8 °C 10.5 °C 1011.2 hPa OSO 20.1 km/h 33.5 km/h 27% 0.0 mm
20:04 31.8 °C 10.5 °C 1011.2 hPa OSO 19.7 km/h 33.8 km/h 27% 0.0 mm
20:09 31.7 °C 10.8 °C 1011.2 hPa OSO 17.2 km/h 33.8 km/h 27.7% 0.0 mm
20:14 31.6 °C 10.9 °C 1011.2 hPa OSO 16.7 km/h 33.8 km/h 28% 0.0 mm
20:19 31.5 °C 10.8 °C 1011.2 hPa OSO 13.7 km/h 25.7 km/h 28% 0.0 mm
20:24 31.4 °C 10.7 °C 1011.6 hPa OSO 14 km/h 29.6 km/h 28% 0.0 mm
20:29 31.4 °C 10.8 °C 1011.6 hPa Oeste 15.6 km/h 29 km/h 28.1% 0.0 mm
20:34 31.2 °C 11.2 °C 1011.6 hPa ONO 15.5 km/h 29.8 km/h 29.3% 0.0 mm
20:39 30.9 °C 11.3 °C 1011.7 hPa Oeste 14.8 km/h 30.6 km/h 30% 0.0 mm
20:44 30.7 °C 11.6 °C 1011.7 hPa Oeste 14.8 km/h 25.9 km/h 30.8% 0.0 mm
20:49 30.6 °C 11.5 °C 1011.7 hPa Oeste 14.8 km/h 25.7 km/h 31% 0.0 mm
20:54 30.4 °C 11.7 °C 1012.0 hPa Oeste 14.7 km/h 26.2 km/h 31.6% 0.0 mm
20:59 30.3 °C 11.8 °C 1012.0 hPa Oeste 13.7 km/h 25.7 km/h 32% 0.0 mm
21:04 30.2 °C 12 °C 1012.0 hPa Oeste 13.9 km/h 24.1 km/h 32.7% 0.0 mm
21:09 30.1 °C 12 °C 1012.3 hPa Oeste 15.6 km/h 24.1 km/h 33% 0.0 mm
21:14 29.9 °C 12 °C 1012.3 hPa Oeste 15.5 km/h 25.1 km/h 33.2% 0.0 mm
21:19 29.8 °C 12.2 °C 1012.3 hPa Oeste 14.8 km/h 25.9 km/h 34% 0.0 mm
21:24 29.7 °C 12.2 °C 1012.5 hPa Oeste 14.9 km/h 27.8 km/h 34% 0.0 mm
21:29 29.7 °C 12.2 °C 1012.5 hPa Oeste 15.6 km/h 27.8 km/h 34.1% 0.0 mm
21:34 29.5 °C 12.4 °C 1012.5 hPa Oeste 15.3 km/h 27.4 km/h 35% 0.0 mm
21:39 29.3 °C 12.4 °C 1012.7 hPa Oeste 13.7 km/h 29.6 km/h 35.1% 0.0 mm
21:44 29.3 °C 12.6 °C 1012.7 hPa ONO 13.9 km/h 29 km/h 36% 0.0 mm
21:49 29.2 °C 12.6 °C 1012.7 hPa Oeste 15.6 km/h 24.5 km/h 36% 0.0 mm
21:54 29.1 °C 12.5 °C 1013.0 hPa Oeste 15.7 km/h 25.1 km/h 36% 0.0 mm
21:59 29.1 °C 12.7 °C 1013.0 hPa Oeste 16.1 km/h 27.8 km/h 36.4% 0.0 mm
22:04 29 °C 12.8 °C 1013.0 hPa Oeste 16.1 km/h 27.4 km/h 37% 0.0 mm
22:09 28.9 °C 12.7 °C 1013.1 hPa Oeste 16.4 km/h 33.3 km/h 37% 0.0 mm
22:14 28.8 °C 12.8 °C 1013.1 hPa Oeste 16.6 km/h 33.8 km/h 37.2% 0.0 mm
22:19 28.7 °C 13 °C 1013.1 hPa Oeste 18 km/h 32.2 km/h 38% 0.0 mm
22:24 28.7 °C 13 °C 1013.4 hPa Oeste 17.8 km/h 27.8 km/h 38% 0.0 mm
22:29 28.7 °C 13 °C 1013.4 hPa Oeste 15.6 km/h 27.4 km/h 38% 0.0 mm
22:34 28.6 °C 12.9 °C 1013.4 hPa Oeste 15.5 km/h 30.6 km/h 38% 0.0 mm
22:39 28.6 °C 12.9 °C 1013.4 hPa Oeste 14.8 km/h 30.6 km/h 38% 0.0 mm
22:44 28.6 °C 12.9 °C 1013.4 hPa Oeste 15.4 km/h 32.3 km/h 38% 0.0 mm
22:49 28.6 °C 12.9 °C 1013.4 hPa Oeste 19 km/h 33.8 km/h 38% 0.0 mm
22:54 28.6 °C 12.9 °C 1013.5 hPa Oeste 19.1 km/h 33.3 km/h 38% 0.0 mm
22:59 28.6 °C 12.9 °C 1013.5 hPa Oeste 19.8 km/h 33.8 km/h 38% 0.0 mm
23:04 28.5 °C 12.8 °C 1013.5 hPa Oeste 19.4 km/h 30.6 km/h 38% 0.0 mm
23:09 28.4 °C 12.7 °C 1013.5 hPa Oeste 17.2 km/h 30.6 km/h 38% 0.0 mm
23:14 28.3 °C 12.7 °C 1013.4 hPa OSO 16.9 km/h 29 km/h 38% 0.0 mm
23:19 28.3 °C 12.6 °C 1013.4 hPa OSO 14.8 km/h 27.4 km/h 38% 0.0 mm
23:24 28.3 °C 12.6 °C 1013.4 hPa OSO 14.7 km/h 24.1 km/h 38% 0.0 mm
23:29 28.3 °C 12.6 °C 1013.3 hPa OSO 13.7 km/h 20.9 km/h 38% 0.0 mm
23:34 28.2 °C 12.6 °C 1013.3 hPa OSO 13.3 km/h 20.4 km/h 38% 0.0 mm
Murcia-Puente Tocinos, España
Compliments of Weather Underground - 2.75 mb

La estación de MeteoMurcia.com, publica sus datos en los siguientes proyectos:

Weather Underground PWS IMURCIAP2 Meteoclimatic www.awekas.at

W3Counter
Web Analytics